sensor_id;sensor_type;location;lat;lon;timestamp;pressure;altitude;pressure_sealevel;temperature;humidity
61757;BME280;57225;61.460;24.060;2023-04-19T00:01:17;102293.31;;;2.61;70.38
61757;BME280;57225;61.460;24.060;2023-04-19T00:04:03;102292.81;;;2.59;70.63
61757;BME280;57225;61.460;24.060;2023-04-19T00:06:47;102295.16;;;2.66;70.34
61757;BME280;57225;61.460;24.060;2023-04-19T00:09:32;102302.56;;;2.70;70.07
61757;BME280;57225;61.460;24.060;2023-04-19T00:12:17;102302.09;;;2.63;70.24
61757;BME280;57225;61.460;24.060;2023-04-19T00:15:01;102299.44;;;2.58;71.02
61757;BME280;57225;61.460;24.060;2023-04-19T00:17:46;102297.78;;;2.57;70.69
61757;BME280;57225;61.460;24.060;2023-04-19T00:20:30;102300.81;;;2.56;70.78
61757;BME280;57225;61.460;24.060;2023-04-19T00:23:15;102297.91;;;2.47;71.23
61757;BME280;57225;61.460;24.060;2023-04-19T00:26:03;102304.00;;;2.44;71.96
61757;BME280;57225;61.460;24.060;2023-04-19T00:28:47;102304.22;;;2.48;71.76
61757;BME280;57225;61.460;24.060;2023-04-19T00:31:32;102300.72;;;2.42;72.05
61757;BME280;57225;61.460;24.060;2023-04-19T00:34:16;102301.41;;;2.34;72.90
61757;BME280;57225;61.460;24.060;2023-04-19T00:37:01;102298.69;;;2.29;72.77
61757;BME280;57225;61.460;24.060;2023-04-19T00:39:47;102300.97;;;2.22;73.00
61757;BME280;57225;61.460;24.060;2023-04-19T00:42:32;102290.56;;;2.19;72.94
61757;BME280;57225;61.460;24.060;2023-04-19T00:45:17;102297.47;;;2.16;73.61
61757;BME280;57225;61.460;24.060;2023-04-19T00:48:01;102293.59;;;2.17;73.67
61757;BME280;57225;61.460;24.060;2023-04-19T00:50:46;102294.88;;;2.25;73.11
61757;BME280;57225;61.460;24.060;2023-04-19T00:53:30;102294.28;;;2.28;72.71
61757;BME280;57225;61.460;24.060;2023-04-19T00:56:15;102295.94;;;2.29;72.63
61757;BME280;57225;61.460;24.060;2023-04-19T00:59:01;102293.78;;;2.26;72.94
61757;BME280;57225;61.460;24.060;2023-04-19T01:01:45;102286.91;;;2.23;73.00
61757;BME280;57225;61.460;24.060;2023-04-19T01:04:30;102292.13;;;2.25;73.09
61757;BME280;57225;61.460;24.060;2023-04-19T01:07:15;102298.66;;;2.34;72.60
61757;BME280;57225;61.460;24.060;2023-04-19T01:10:00;102296.75;;;2.29;72.82
61757;BME280;57225;61.460;24.060;2023-04-19T01:12:44;102291.25;;;2.29;72.65
61757;BME280;57225;61.460;24.060;2023-04-19T01:15:29;102300.03;;;2.31;72.88
61757;BME280;57225;61.460;24.060;2023-04-19T01:18:14;102297.34;;;2.26;72.69
61757;BME280;57225;61.460;24.060;2023-04-19T01:20:59;102292.59;;;2.32;72.46
61757;BME280;57225;61.460;24.060;2023-04-19T01:23:43;102300.09;;;2.26;72.77
61757;BME280;57225;61.460;24.060;2023-04-19T01:26:29;102298.28;;;2.17;73.47
61757;BME280;57225;61.460;24.060;2023-04-19T01:29:13;102292.31;;;2.10;73.77
61757;BME280;57225;61.460;24.060;2023-04-19T01:31:58;102289.63;;;2.05;74.19
61757;BME280;57225;61.460;24.060;2023-04-19T01:34:43;102296.41;;;2.12;74.00
61757;BME280;57225;61.460;24.060;2023-04-19T01:37:27;102297.78;;;2.15;73.83
61757;BME280;57225;61.460;24.060;2023-04-19T01:40:12;102301.69;;;2.09;74.13
61757;BME280;57225;61.460;24.060;2023-04-19T01:42:57;102291.91;;;1.97;74.82
61757;BME280;57225;61.460;24.060;2023-04-19T01:45:41;102301.56;;;1.95;75.02
61757;BME280;57225;61.460;24.060;2023-04-19T01:48:25;102315.59;;;1.93;75.22
61757;BME280;57225;61.460;24.060;2023-04-19T01:51:10;102311.50;;;1.91;75.40
61757;BME280;57225;61.460;24.060;2023-04-19T01:53:54;102308.13;;;1.99;75.04
61757;BME280;57225;61.460;24.060;2023-04-19T01:56:39;102306.81;;;1.91;75.59
61757;BME280;57225;61.460;24.060;2023-04-19T01:59:23;102307.56;;;1.97;74.77
61757;BME280;57225;61.460;24.060;2023-04-19T02:02:08;102309.50;;;1.96;74.79
61757;BME280;57225;61.460;24.060;2023-04-19T02:04:52;102306.25;;;1.94;74.74
61757;BME280;57225;61.460;24.060;2023-04-19T02:07:37;102301.78;;;1.98;74.39
61757;BME280;57225;61.460;24.060;2023-04-19T02:10:21;102297.47;;;1.92;74.90
61757;BME280;57225;61.460;24.060;2023-04-19T02:13:06;102306.19;;;1.99;74.35
61757;BME280;57225;61.460;24.060;2023-04-19T02:15:50;102299.09;;;1.93;74.74
61757;BME280;57225;61.460;24.060;2023-04-19T02:18:35;102297.88;;;2.05;74.26
61757;BME280;57225;61.460;24.060;2023-04-19T02:21:21;102292.78;;;1.93;74.63
61757;BME280;57225;61.460;24.060;2023-04-19T02:24:06;102300.75;;;1.94;74.67
61757;BME280;57225;61.460;24.060;2023-04-19T02:26:51;102298.50;;;1.96;74.59
61757;BME280;57225;61.460;24.060;2023-04-19T02:29:36;102298.63;;;1.86;74.92
61757;BME280;57225;61.460;24.060;2023-04-19T02:32:21;102286.03;;;1.80;75.28
61757;BME280;57225;61.460;24.060;2023-04-19T02:35:06;102290.91;;;1.88;75.01
61757;BME280;57225;61.460;24.060;2023-04-19T02:37:50;102291.53;;;1.80;74.87
61757;BME280;57225;61.460;24.060;2023-04-19T02:40:34;102290.25;;;1.73;75.34
61757;BME280;57225;61.460;24.060;2023-04-19T02:43:19;102285.50;;;1.78;75.14
61757;BME280;57225;61.460;24.060;2023-04-19T02:46:03;102280.69;;;1.65;75.96
61757;BME280;57225;61.460;24.060;2023-04-19T02:48:47;102277.94;;;1.65;75.78
61757;BME280;57225;61.460;24.060;2023-04-19T02:51:32;102274.97;;;1.61;75.71
61757;BME280;57225;61.460;24.060;2023-04-19T02:54:16;102272.41;;;1.70;75.87
61757;BME280;57225;61.460;24.060;2023-04-19T02:57:01;102271.34;;;1.66;76.13
61757;BME280;57225;61.460;24.060;2023-04-19T02:59:45;102267.38;;;1.77;75.37
61757;BME280;57225;61.460;24.060;2023-04-19T03:02:30;102271.41;;;1.85;75.11
61757;BME280;57225;61.460;24.060;2023-04-19T03:05:14;102274.00;;;1.76;75.29
61757;BME280;57225;61.460;24.060;2023-04-19T03:07:59;102268.50;;;1.76;75.33
61757;BME280;57225;61.460;24.060;2023-04-19T03:10:43;102266.81;;;1.80;75.37
61757;BME280;57225;61.460;24.060;2023-04-19T03:13:28;102272.28;;;1.80;75.17
61757;BME280;57225;61.460;24.060;2023-04-19T03:16:13;102272.88;;;1.77;75.36
61757;BME280;57225;61.460;24.060;2023-04-19T03:18:57;102276.63;;;1.86;74.82
61757;BME280;57225;61.460;24.060;2023-04-19T03:21:42;102275.28;;;1.84;74.85
61757;BME280;57225;61.460;24.060;2023-04-19T03:24:30;102278.34;;;1.82;74.93
61757;BME280;57225;61.460;24.060;2023-04-19T03:27:30;102280.00;;;1.78;74.98
61757;BME280;57225;61.460;24.060;2023-04-19T03:30:16;102280.00;;;1.78;75.17
61757;BME280;57225;61.460;24.060;2023-04-19T03:33:01;102278.34;;;1.82;75.00
61757;BME280;57225;61.460;24.060;2023-04-19T03:35:45;102288.16;;;1.88;74.71
61757;BME280;57225;61.460;24.060;2023-04-19T03:38:30;102277.44;;;1.87;74.79
61757;BME280;57225;61.460;24.060;2023-04-19T03:41:21;102273.72;;;2.01;74.19
61757;BME280;57225;61.460;24.060;2023-04-19T03:44:06;102275.34;;;2.02;74.07
61757;BME280;57225;61.460;24.060;2023-04-19T03:46:51;102272.28;;;2.04;74.14
61757;BME280;57225;61.460;24.060;2023-04-19T03:49:35;102276.88;;;2.14;73.99
61757;BME280;57225;61.460;24.060;2023-04-19T03:52:19;102270.25;;;2.15;73.94
61757;BME280;57225;61.460;24.060;2023-04-19T03:55:04;102277.19;;;2.31;73.02
61757;BME280;57225;61.460;24.060;2023-04-19T03:57:49;102287.38;;;2.30;73.20
61757;BME280;57225;61.460;24.060;2023-04-19T04:00:35;102292.06;;;2.30;73.13
61757;BME280;57225;61.460;24.060;2023-04-19T04:03:20;102290.66;;;2.32;73.25
61757;BME280;57225;61.460;24.060;2023-04-19T04:06:05;102299.22;;;2.31;73.68
61757;BME280;57225;61.460;24.060;2023-04-19T04:08:50;102303.53;;;2.37;73.24
61757;BME280;57225;61.460;24.060;2023-04-19T04:11:35;102301.19;;;2.49;72.54
61757;BME280;57225;61.460;24.060;2023-04-19T04:14:20;102299.88;;;2.65;71.62
61757;BME280;57225;61.460;24.060;2023-04-19T04:17:04;102293.97;;;2.72;71.08
61757;BME280;57225;61.460;24.060;2023-04-19T04:19:49;102284.97;;;2.66;71.40
61757;BME280;57225;61.460;24.060;2023-04-19T04:22:33;102286.69;;;2.81;70.68
61757;BME280;57225;61.460;24.060;2023-04-19T04:25:19;102280.66;;;2.98;70.30
61757;BME280;57225;61.460;24.060;2023-04-19T04:28:03;102282.91;;;2.96;70.40
61757;BME280;57225;61.460;24.060;2023-04-19T04:30:48;102282.22;;;3.04;69.85
61757;BME280;57225;61.460;24.060;2023-04-19T04:33:32;102282.06;;;3.14;69.58
61757;BME280;57225;61.460;24.060;2023-04-19T04:36:17;102292.56;;;3.77;67.71
61757;BME280;57225;61.460;24.060;2023-04-19T04:39:02;102290.28;;;5.10;62.27
61757;BME280;57225;61.460;24.060;2023-04-19T04:41:47;102291.25;;;6.77;56.78
61757;BME280;57225;61.460;24.060;2023-04-19T04:44:34;102292.91;;;8.02;52.57
61757;BME280;57225;61.460;24.060;2023-04-19T04:47:19;102290.53;;;9.55;48.15
61757;BME280;57225;61.460;24.060;2023-04-19T04:50:04;102297.28;;;10.84;44.61
61757;BME280;57225;61.460;24.060;2023-04-19T04:52:48;102289.00;;;11.27;43.12
61757;BME280;57225;61.460;24.060;2023-04-19T04:55:33;102301.72;;;11.13;42.84
61757;BME280;57225;61.460;24.060;2023-04-19T04:58:17;102298.66;;;10.90;43.34
61757;BME280;57225;61.460;24.060;2023-04-19T05:01:02;102301.38;;;11.98;41.36
61757;BME280;57225;61.460;24.060;2023-04-19T05:03:46;102297.16;;;11.20;42.34
61757;BME280;57225;61.460;24.060;2023-04-19T05:06:31;102304.41;;;11.49;42.30
61757;BME280;57225;61.460;24.060;2023-04-19T05:09:15;102299.00;;;10.88;43.39
61757;BME280;57225;61.460;24.060;2023-04-19T05:12:00;102299.97;;;10.32;43.93
61757;BME280;57225;61.460;24.060;2023-04-19T05:14:45;102302.47;;;10.98;43.87
61757;BME280;57225;61.460;24.060;2023-04-19T05:17:29;102305.34;;;10.61;44.11
61757;BME280;57225;61.460;24.060;2023-04-19T05:20:14;102304.63;;;10.52;44.31
61757;BME280;57225;61.460;24.060;2023-04-19T05:22:59;102323.66;;;10.99;43.00
61757;BME280;57225;61.460;24.060;2023-04-19T05:25:44;102312.75;;;10.21;44.56
61757;BME280;57225;61.460;24.060;2023-04-19T05:28:29;102312.19;;;10.64;44.16
61757;BME280;57225;61.460;24.060;2023-04-19T05:31:14;102314.00;;;9.99;45.38
61757;BME280;57225;61.460;24.060;2023-04-19T05:33:58;102311.69;;;9.68;46.82
61757;BME280;57225;61.460;24.060;2023-04-19T05:36:43;102315.50;;;8.89;48.43
61757;BME280;57225;61.460;24.060;2023-04-19T05:39:27;102316.97;;;8.66;49.37
61757;BME280;57225;61.460;24.060;2023-04-19T05:42:11;102311.16;;;8.50;49.80
61757;BME280;57225;61.460;24.060;2023-04-19T05:44:56;102311.97;;;7.49;52.34
61757;BME280;57225;61.460;24.060;2023-04-19T05:47:41;102309.19;;;7.40;53.22
61757;BME280;57225;61.460;24.060;2023-04-19T05:50:25;102308.88;;;7.50;53.50
61757;BME280;57225;61.460;24.060;2023-04-19T05:53:10;102311.47;;;7.47;53.78
61757;BME280;57225;61.460;24.060;2023-04-19T05:55:54;102314.75;;;7.57;53.28
61757;BME280;57225;61.460;24.060;2023-04-19T05:58:39;102316.41;;;7.24;53.68
61757;BME280;57225;61.460;24.060;2023-04-19T06:01:23;102311.97;;;6.97;54.85
61757;BME280;57225;61.460;24.060;2023-04-19T06:04:08;102318.16;;;7.03;55.12
61757;BME280;57225;61.460;24.060;2023-04-19T06:06:52;102320.97;;;6.94;55.22
61757;BME280;57225;61.460;24.060;2023-04-19T06:09:37;102314.56;;;7.02;55.16
61757;BME280;57225;61.460;24.060;2023-04-19T06:12:21;102314.75;;;6.89;55.54
61757;BME280;57225;61.460;24.060;2023-04-19T06:15:06;102313.28;;;6.91;55.43
61757;BME280;57225;61.460;24.060;2023-04-19T06:17:50;102311.16;;;7.22;54.83
61757;BME280;57225;61.460;24.060;2023-04-19T06:20:36;102302.03;;;7.22;54.27
61757;BME280;57225;61.460;24.060;2023-04-19T06:23:21;102315.38;;;7.54;55.10
61757;BME280;57225;61.460;24.060;2023-04-19T06:26:05;102312.88;;;7.87;52.92
61757;BME280;57225;61.460;24.060;2023-04-19T06:28:50;102316.34;;;7.67;53.45
61757;BME280;57225;61.460;24.060;2023-04-19T06:31:34;102311.47;;;7.47;53.94
61757;BME280;57225;61.460;24.060;2023-04-19T06:34:19;102314.94;;;8.07;53.89
61757;BME280;57225;61.460;24.060;2023-04-19T06:37:03;102320.09;;;8.26;52.77
61757;BME280;57225;61.460;24.060;2023-04-19T06:39:47;102317.00;;;8.57;50.78
61757;BME280;57225;61.460;24.060;2023-04-19T06:42:35;102313.94;;;8.50;51.75
61757;BME280;57225;61.460;24.060;2023-04-19T06:45:19;102313.16;;;8.41;50.75
61757;BME280;57225;61.460;24.060;2023-04-19T06:48:04;102311.59;;;8.31;51.02
61757;BME280;57225;61.460;24.060;2023-04-19T06:50:48;102314.69;;;8.88;50.99
61757;BME280;57225;61.460;24.060;2023-04-19T06:53:33;102310.50;;;9.03;49.27
61757;BME280;57225;61.460;24.060;2023-04-19T06:59:30;102312.66;;;9.18;49.68
61757;BME280;57225;61.460;24.060;2023-04-19T07:02:16;102319.38;;;9.71;48.21
61757;BME280;57225;61.460;24.060;2023-04-19T07:05:01;102308.44;;;9.66;47.57
61757;BME280;57225;61.460;24.060;2023-04-19T07:07:46;102313.72;;;9.26;48.17
61757;BME280;57225;61.460;24.060;2023-04-19T07:10:30;102313.03;;;9.50;47.55
61757;BME280;57225;61.460;24.060;2023-04-19T07:13:15;102309.41;;;9.16;48.66
61757;BME280;57225;61.460;24.060;2023-04-19T07:16:03;102308.19;;;9.59;47.17
61757;BME280;57225;61.460;24.060;2023-04-19T07:18:48;102310.38;;;9.86;46.57
61757;BME280;57225;61.460;24.060;2023-04-19T07:21:32;102309.00;;;10.04;46.36
61757;BME280;57225;61.460;24.060;2023-04-19T07:24:18;102319.97;;;10.58;45.68
61757;BME280;57225;61.460;24.060;2023-04-19T07:27:05;102323.56;;;10.22;44.29
61757;BME280;57225;61.460;24.060;2023-04-19T07:29:51;102319.28;;;9.80;45.55
61757;BME280;57225;61.460;24.060;2023-04-19T07:32:35;102321.75;;;10.05;44.07
61757;BME280;57225;61.460;24.060;2023-04-19T07:35:20;102321.41;;;10.07;45.61
61757;BME280;57225;61.460;24.060;2023-04-19T07:38:04;102315.06;;;10.31;43.92
61757;BME280;57225;61.460;24.060;2023-04-19T07:40:48;102318.56;;;10.52;44.46
61757;BME280;57225;61.460;24.060;2023-04-19T07:43:33;102311.50;;;11.07;42.96
61757;BME280;57225;61.460;24.060;2023-04-19T07:46:18;102303.34;;;10.37;43.55
61757;BME280;57225;61.460;24.060;2023-04-19T07:49:02;102311.25;;;10.60;44.17
61757;BME280;57225;61.460;24.060;2023-04-19T07:51:47;102304.50;;;10.73;43.85
61757;BME280;57225;61.460;24.060;2023-04-19T07:54:31;102299.31;;;10.35;43.53
61757;BME280;57225;61.460;24.060;2023-04-19T07:57:16;102299.16;;;10.43;43.95
61757;BME280;57225;61.460;24.060;2023-04-19T08:00:00;102295.41;;;10.03;45.36
61757;BME280;57225;61.460;24.060;2023-04-19T08:02:46;102285.38;;;10.35;44.35
61757;BME280;57225;61.460;24.060;2023-04-19T08:05:30;102283.72;;;10.22;44.56
61757;BME280;57225;61.460;24.060;2023-04-19T08:08:15;102293.97;;;10.42;44.33
61757;BME280;57225;61.460;24.060;2023-04-19T08:10:59;102284.19;;;11.00;43.64
61757;BME280;57225;61.460;24.060;2023-04-19T08:13:45;102286.00;;;11.20;42.19
61757;BME280;57225;61.460;24.060;2023-04-19T08:16:29;102290.69;;;11.44;43.15
61757;BME280;57225;61.460;24.060;2023-04-19T08:19:14;102290.44;;;11.49;41.83
61757;BME280;57225;61.460;24.060;2023-04-19T08:21:58;102283.06;;;11.29;42.21
61757;BME280;57225;61.460;24.060;2023-04-19T08:24:43;102280.78;;;11.75;41.81
61757;BME280;57225;61.460;24.060;2023-04-19T08:27:30;102284.72;;;11.30;41.00
61757;BME280;57225;61.460;24.060;2023-04-19T08:30:15;102278.91;;;11.79;40.55
61757;BME280;57225;61.460;24.060;2023-04-19T08:32:59;102289.00;;;10.87;41.55
61757;BME280;57225;61.460;24.060;2023-04-19T08:35:44;102282.03;;;10.94;42.08
61757;BME280;57225;61.460;24.060;2023-04-19T08:38:29;102287.13;;;11.59;40.39
61757;BME280;57225;61.460;24.060;2023-04-19T08:41:14;102279.75;;;11.95;40.34
61757;BME280;57225;61.460;24.060;2023-04-19T08:44:02;102287.19;;;11.91;39.54
61757;BME280;57225;61.460;24.060;2023-04-19T08:46:47;102278.28;;;12.32;39.88
61757;BME280;57225;61.460;24.060;2023-04-19T08:49:38;102280.97;;;12.79;39.32
61757;BME280;57225;61.460;24.060;2023-04-19T08:52:23;102262.13;;;11.79;40.56
61757;BME280;57225;61.460;24.060;2023-04-19T08:55:08;102267.56;;;11.59;41.15
61757;BME280;57225;61.460;24.060;2023-04-19T08:57:52;102275.38;;;12.29;38.57
61757;BME280;57225;61.460;24.060;2023-04-19T09:00:41;102275.41;;;11.82;39.72
61757;BME280;57225;61.460;24.060;2023-04-19T09:03:26;102278.59;;;11.40;40.05
61757;BME280;57225;61.460;24.060;2023-04-19T09:06:10;102257.38;;;11.51;40.55
61757;BME280;57225;61.460;24.060;2023-04-19T09:09:33;102269.16;;;12.51;39.90
61757;BME280;57225;61.460;24.060;2023-04-19T09:12:17;102258.97;;;12.97;38.75
61757;BME280;57225;61.460;24.060;2023-04-19T09:15:03;102262.72;;;13.20;37.94
61757;BME280;57225;61.460;24.060;2023-04-19T09:18:02;102246.13;;;13.54;38.31
61757;BME280;57225;61.460;24.060;2023-04-19T09:20:48;102233.84;;;13.81;37.62
61757;BME280;57225;61.460;24.060;2023-04-19T09:23:33;102245.44;;;14.02;37.34
61757;BME280;57225;61.460;24.060;2023-04-19T09:26:29;102236.81;;;13.69;36.67
61757;BME280;57225;61.460;24.060;2023-04-19T09:29:16;102238.88;;;13.30;37.33
61757;BME280;57225;61.460;24.060;2023-04-19T09:32:01;102243.19;;;13.47;37.72
61757;BME280;57225;61.460;24.060;2023-04-19T09:34:56;102231.16;;;13.88;37.30
61757;BME280;57225;61.460;24.060;2023-04-19T09:37:42;102232.84;;;14.16;36.27
61757;BME280;57225;61.460;24.060;2023-04-19T09:40:26;102235.66;;;13.93;36.46
61757;BME280;57225;61.460;24.060;2023-04-19T09:43:11;102232.13;;;14.45;36.61
61757;BME280;57225;61.460;24.060;2023-04-19T09:45:55;102226.59;;;14.78;36.05
61757;BME280;57225;61.460;24.060;2023-04-19T09:48:39;102224.78;;;15.26;34.58
61757;BME280;57225;61.460;24.060;2023-04-19T09:51:39;102196.09;;;14.80;35.18
61757;BME280;57225;61.460;24.060;2023-04-19T09:54:25;102223.53;;;15.24;34.48
61757;BME280;57225;61.460;24.060;2023-04-19T09:57:13;102224.44;;;15.68;34.71
61757;BME280;57225;61.460;24.060;2023-04-19T09:59:59;102225.66;;;15.34;33.94
61757;BME280;57225;61.460;24.060;2023-04-19T10:02:44;102223.94;;;15.22;33.83
61757;BME280;57225;61.460;24.060;2023-04-19T10:05:37;102214.19;;;14.53;35.51
61757;BME280;57225;61.460;24.060;2023-04-19T10:08:22;102216.63;;;14.05;36.41
61757;BME280;57225;61.460;24.060;2023-04-19T10:11:09;102218.81;;;14.98;35.26
61757;BME280;57225;61.460;24.060;2023-04-19T10:13:56;102219.66;;;15.02;34.22
61757;BME280;57225;61.460;24.060;2023-04-19T10:16:43;102211.06;;;14.58;34.83
61757;BME280;57225;61.460;24.060;2023-04-19T10:19:27;102207.44;;;14.87;34.27
61757;BME280;57225;61.460;24.060;2023-04-19T10:22:13;102210.97;;;15.14;34.31
61757;BME280;57225;61.460;24.060;2023-04-19T10:27:52;102204.25;;;14.33;35.87
61757;BME280;57225;61.460;24.060;2023-04-19T10:30:51;102206.41;;;14.69;35.37
61757;BME280;57225;61.460;24.060;2023-04-19T10:33:37;102197.19;;;15.02;34.97
61757;BME280;57225;61.460;24.060;2023-04-19T10:36:21;102203.72;;;15.10;33.56
61757;BME280;57225;61.460;24.060;2023-04-19T10:39:36;102206.44;;;15.36;33.64
61757;BME280;57225;61.460;24.060;2023-04-19T10:42:14;102191.03;;;15.23;33.88
61757;BME280;57225;61.460;24.060;2023-04-19T10:45:31;102184.31;;;14.98;33.69
61757;BME280;57225;61.460;24.060;2023-04-19T10:54:03;102189.72;;;15.94;32.76
61757;BME280;57225;61.460;24.060;2023-04-19T10:57:04;102169.44;;;16.26;32.19
61757;BME280;57225;61.460;24.060;2023-04-19T11:00:21;102183.28;;;16.52;31.67
61757;BME280;57225;61.460;24.060;2023-04-19T11:06:28;102169.19;;;15.46;32.98
61757;BME280;57225;61.460;24.060;2023-04-19T11:09:24;102172.19;;;15.64;33.31
61757;BME280;57225;61.460;24.060;2023-04-19T11:12:13;102168.38;;;15.90;31.68
61757;BME280;57225;61.460;24.060;2023-04-19T11:14:58;102172.69;;;15.73;31.51
61757;BME280;57225;61.460;24.060;2023-04-19T11:17:43;102165.19;;;15.10;31.96
61757;BME280;57225;61.460;24.060;2023-04-19T11:20:28;102166.38;;;15.46;32.58
61757;BME280;57225;61.460;24.060;2023-04-19T11:23:15;102170.03;;;15.94;31.80
61757;BME280;57225;61.460;24.060;2023-04-19T11:26:01;102161.84;;;16.30;30.73
61757;BME280;57225;61.460;24.060;2023-04-19T11:28:45;102167.91;;;16.35;30.18
61757;BME280;57225;61.460;24.060;2023-04-19T11:31:33;102160.50;;;16.09;31.93
61757;BME280;57225;61.460;24.060;2023-04-19T11:34:21;102151.84;;;16.36;31.50
61757;BME280;57225;61.460;24.060;2023-04-19T11:37:07;102149.91;;;16.58;31.25
61757;BME280;57225;61.460;24.060;2023-04-19T11:39:51;102150.22;;;16.38;30.60
61757;BME280;57225;61.460;24.060;2023-04-19T11:42:35;102139.00;;;16.45;31.13
61757;BME280;57225;61.460;24.060;2023-04-19T11:45:28;102135.44;;;15.06;32.60
61757;BME280;57225;61.460;24.060;2023-04-19T11:48:13;102136.97;;;15.81;31.63
61757;BME280;57225;61.460;24.060;2023-04-19T11:50:59;102130.06;;;16.29;30.85
61757;BME280;57225;61.460;24.060;2023-04-19T11:53:44;102126.88;;;16.34;30.51
61757;BME280;57225;61.460;24.060;2023-04-19T11:56:30;102127.19;;;16.15;31.26
61757;BME280;57225;61.460;24.060;2023-04-19T11:59:14;102122.28;;;16.77;30.04
61757;BME280;57225;61.460;24.060;2023-04-19T12:04:50;102104.66;;;16.98;30.15
61757;BME280;57225;61.460;24.060;2023-04-19T12:07:35;102103.47;;;17.10;29.76
61757;BME280;57225;61.460;24.060;2023-04-19T12:10:19;102119.16;;;17.14;29.33
61757;BME280;57225;61.460;24.060;2023-04-19T12:13:31;102114.38;;;17.25;29.94
61757;BME280;57225;61.460;24.060;2023-04-19T12:16:26;102113.13;;;17.12;29.45
61757;BME280;57225;61.460;24.060;2023-04-19T12:19:15;102099.03;;;17.12;30.32
61757;BME280;57225;61.460;24.060;2023-04-19T12:22:08;102092.66;;;17.76;29.28
61757;BME280;57225;61.460;24.060;2023-04-19T12:24:53;102101.50;;;17.49;28.95
61757;BME280;57225;61.460;24.060;2023-04-19T12:27:39;102084.94;;;16.98;29.83
61757;BME280;57225;61.460;24.060;2023-04-19T12:30:24;102077.91;;;16.53;30.31
61757;BME280;57225;61.460;24.060;2023-04-19T12:33:09;102071.44;;;16.42;29.58
61757;BME280;57225;61.460;24.060;2023-04-19T12:35:53;102085.81;;;16.23;31.08
61757;BME280;57225;61.460;24.060;2023-04-19T12:38:38;102088.13;;;16.06;30.51
61757;BME280;57225;61.460;24.060;2023-04-19T12:41:22;102083.22;;;15.01;30.96
61757;BME280;57225;61.460;24.060;2023-04-19T12:44:07;102085.25;;;14.67;33.19
61757;BME280;57225;61.460;24.060;2023-04-19T12:46:52;102084.13;;;14.72;32.43
61757;BME280;57225;61.460;24.060;2023-04-19T12:49:40;102079.19;;;14.99;32.10
61757;BME280;57225;61.460;24.060;2023-04-19T12:52:24;102079.25;;;14.69;32.48
61757;BME280;57225;61.460;24.060;2023-04-19T12:55:09;102079.13;;;14.92;32.59
61757;BME280;57225;61.460;24.060;2023-04-19T12:57:53;102079.72;;;15.11;32.67
61757;BME280;57225;61.460;24.060;2023-04-19T13:00:38;102078.34;;;14.95;31.92
61757;BME280;57225;61.460;24.060;2023-04-19T13:03:22;102072.59;;;15.21;31.99
61757;BME280;57225;61.460;24.060;2023-04-19T13:06:07;102073.03;;;14.86;31.50
61757;BME280;57225;61.460;24.060;2023-04-19T13:08:52;102071.72;;;14.73;32.24
61757;BME280;57225;61.460;24.060;2023-04-19T13:11:37;102072.38;;;15.00;32.52
61757;BME280;57225;61.460;24.060;2023-04-19T13:14:21;102061.59;;;13.79;32.09
61757;BME280;57225;61.460;24.060;2023-04-19T13:17:05;102058.81;;;13.52;32.93
61757;BME280;57225;61.460;24.060;2023-04-19T13:19:49;102058.59;;;14.21;33.06
61757;BME280;57225;61.460;24.060;2023-04-19T13:22:34;102063.31;;;14.43;32.19
61757;BME280;57225;61.460;24.060;2023-04-19T13:25:21;102051.72;;;14.15;33.38
61757;BME280;57225;61.460;24.060;2023-04-19T13:28:08;102050.47;;;14.42;32.92
61757;BME280;57225;61.460;24.060;2023-04-19T13:30:56;102055.59;;;14.66;32.84
61757;BME280;57225;61.460;24.060;2023-04-19T13:33:43;102055.81;;;14.87;30.87
61757;BME280;57225;61.460;24.060;2023-04-19T13:36:31;102044.47;;;15.17;30.84
61757;BME280;57225;61.460;24.060;2023-04-19T13:39:18;102047.31;;;15.21;30.71
61757;BME280;57225;61.460;24.060;2023-04-19T13:42:05;102036.78;;;15.11;31.61
61757;BME280;57225;61.460;24.060;2023-04-19T13:44:52;102032.81;;;15.63;31.60
61757;BME280;57225;61.460;24.060;2023-04-19T13:47:38;102035.78;;;15.37;30.50
61757;BME280;57225;61.460;24.060;2023-04-19T13:50:27;102040.63;;;15.36;30.94
61757;BME280;57225;61.460;24.060;2023-04-19T13:53:14;102030.50;;;15.28;31.75
61757;BME280;57225;61.460;24.060;2023-04-19T13:56:03;102027.16;;;15.12;31.55
61757;BME280;57225;61.460;24.060;2023-04-19T13:58:50;102029.69;;;14.83;31.41
61757;BME280;57225;61.460;24.060;2023-04-19T14:01:39;102035.59;;;14.71;32.48
61757;BME280;57225;61.460;24.060;2023-04-19T14:04:26;102026.97;;;14.91;32.23
61757;BME280;57225;61.460;24.060;2023-04-19T14:07:13;102026.22;;;14.97;31.26
61757;BME280;57225;61.460;24.060;2023-04-19T14:10:01;102030.53;;;14.87;30.86
61757;BME280;57225;61.460;24.060;2023-04-19T14:12:49;102019.97;;;14.74;32.37
61757;BME280;57225;61.460;24.060;2023-04-19T14:15:38;102010.19;;;14.98;32.03
61757;BME280;57225;61.460;24.060;2023-04-19T14:18:28;102026.19;;;14.94;31.31
61757;BME280;57225;61.460;24.060;2023-04-19T14:21:16;102024.38;;;14.38;32.26
61757;BME280;57225;61.460;24.060;2023-04-19T14:24:03;102016.72;;;14.35;32.16
61757;BME280;57225;61.460;24.060;2023-04-19T14:26:50;102020.44;;;14.13;33.30
61757;BME280;57225;61.460;24.060;2023-04-19T14:29:38;102011.84;;;14.32;33.24
61757;BME280;57225;61.460;24.060;2023-04-19T14:32:24;102017.66;;;14.46;33.15
61757;BME280;57225;61.460;24.060;2023-04-19T14:35:11;102014.41;;;14.40;33.04
61757;BME280;57225;61.460;24.060;2023-04-19T14:37:58;102010.56;;;14.56;32.87
61757;BME280;57225;61.460;24.060;2023-04-19T14:40:45;102010.47;;;14.48;32.70